createdAt,value
2023-02-07T00:01:44.868Z,50.63
2023-02-07T00:03:46.227Z,50.71
2023-02-07T00:05:47.559Z,50.36
2023-02-07T00:07:48.851Z,50.20
2023-02-07T00:09:50.680Z,50.67
2023-02-07T00:11:52.069Z,50.36
2023-02-07T00:13:53.428Z,51.29
2023-02-07T00:15:54.837Z,50.99
2023-02-07T00:17:56.156Z,51.70
2023-02-07T00:19:57.505Z,51.58
2023-02-07T00:21:58.816Z,51.86
2023-02-07T00:24:00.232Z,52.28
2023-02-07T00:26:01.558Z,52.05
2023-02-07T00:28:03.062Z,51.91
2023-02-07T00:30:04.447Z,51.96
2023-02-07T00:32:05.751Z,52.15
2023-02-07T00:34:07.056Z,52.53
2023-02-07T00:36:08.375Z,52.68
2023-02-07T00:38:09.687Z,52.54
2023-02-07T00:40:11.006Z,52.40
2023-02-07T00:42:12.340Z,52.88
2023-02-07T00:44:13.713Z,53.19
2023-02-07T00:46:15.055Z,53.50
2023-02-07T00:48:16.384Z,53.99
2023-02-07T00:50:17.712Z,54.21
2023-02-07T00:52:19.014Z,54.23
2023-02-07T00:54:20.318Z,54.34
2023-02-07T00:56:21.648Z,54.49
2023-02-07T00:58:22.971Z,54.77
2023-02-07T01:00:24.308Z,55.30
2023-02-07T01:02:25.613Z,55.29
2023-02-07T01:04:27.043Z,55.03
2023-02-07T01:06:29.504Z,54.71
2023-02-07T01:08:30.830Z,54.59
2023-02-07T01:10:32.132Z,54.66
2023-02-07T01:12:33.444Z,54.62
2023-02-07T01:14:34.828Z,54.96
2023-02-07T01:16:36.160Z,54.61
2023-02-07T01:18:37.500Z,54.99
2023-02-07T01:20:38.792Z,54.80
2023-02-07T01:22:40.095Z,54.88
2023-02-07T01:24:41.652Z,54.42
2023-02-07T01:26:42.940Z,54.12
2023-02-07T01:28:44.246Z,54.79
2023-02-07T01:30:45.748Z,54.73
2023-02-07T01:32:47.099Z,54.25
2023-02-07T01:34:48.443Z,54.51
2023-02-07T01:36:49.758Z,54.71
2023-02-07T01:38:51.067Z,55.00
2023-02-07T01:40:52.748Z,55.62
2023-02-07T01:42:54.047Z,55.50
2023-02-07T01:44:55.376Z,55.85
2023-02-07T01:46:56.686Z,55.64
2023-02-07T01:48:58.044Z,55.47
2023-02-07T01:51:00.621Z,55.64
2023-02-07T01:53:02.198Z,55.48
2023-02-07T01:55:03.556Z,55.34
2023-02-07T01:57:04.911Z,55.08
2023-02-07T01:59:07.109Z,55.43
2023-02-07T02:01:08.429Z,54.77
2023-02-07T02:03:09.790Z,55.00
2023-02-07T02:05:11.092Z,55.12
2023-02-07T02:07:12.396Z,54.51
2023-02-07T02:09:13.724Z,54.95
2023-02-07T02:11:15.070Z,54.81
2023-02-07T02:13:17.016Z,54.70
2023-02-07T02:15:18.307Z,54.58
2023-02-07T02:17:19.696Z,54.41
2023-02-07T02:19:21.031Z,54.47
2023-02-07T02:21:22.359Z,54.31
2023-02-07T02:23:23.657Z,54.33
2023-02-07T02:25:24.986Z,53.91
2023-02-07T02:27:26.324Z,53.63
2023-02-07T02:29:27.661Z,53.33
2023-02-07T02:31:28.994Z,53.55
2023-02-07T02:33:30.322Z,53.21
2023-02-07T02:35:31.639Z,53.30
2023-02-07T02:37:33.013Z,53.15
2023-02-07T02:39:34.349Z,52.78
2023-02-07T02:41:35.651Z,52.70
2023-02-07T02:43:36.984Z,52.52
2023-02-07T02:45:38.532Z,52.71
2023-02-07T02:47:39.986Z,52.20
2023-02-07T02:49:41.283Z,52.35
2023-02-07T02:51:42.580Z,52.48
2023-02-07T02:53:43.932Z,53.19
2023-02-07T02:55:45.258Z,53.42
2023-02-07T02:57:46.594Z,53.58
2023-02-07T02:59:47.893Z,53.54
2023-02-07T03:01:49.259Z,53.87
2023-02-07T03:03:50.574Z,53.55
2023-02-07T03:05:51.902Z,53.76
2023-02-07T03:07:53.196Z,54.01
2023-02-07T03:09:54.491Z,53.40
2023-02-07T03:11:55.789Z,53.63
2023-02-07T03:13:57.122Z,53.84
2023-02-07T03:15:58.501Z,54.26
2023-02-07T03:17:59.802Z,54.15
2023-02-07T03:20:01.137Z,54.30
2023-02-07T03:22:02.481Z,54.13
2023-02-07T03:24:03.803Z,54.55
2023-02-07T03:26:05.116Z,53.84
2023-02-07T03:28:06.452Z,54.10
2023-02-07T03:30:07.805Z,54.48
2023-02-07T03:32:09.118Z,55.02
2023-02-07T03:34:10.584Z,54.83
2023-02-07T03:36:11.911Z,54.48
2023-02-07T03:38:13.284Z,54.70
2023-02-07T03:40:14.620Z,54.73
2023-02-07T03:42:15.925Z,54.27
2023-02-07T03:44:17.234Z,54.59
2023-02-07T03:46:18.655Z,55.09
2023-02-07T03:48:20.004Z,54.93
2023-02-07T03:50:21.315Z,55.01
2023-02-07T03:52:22.637Z,54.50
2023-02-07T03:54:23.989Z,54.37
2023-02-07T03:56:25.335Z,53.48
2023-02-07T03:58:26.635Z,53.01
2023-02-07T04:00:27.968Z,53.29
2023-02-07T04:02:29.300Z,52.41
2023-02-07T04:04:30.607Z,51.60
2023-02-07T04:06:31.962Z,51.57
2023-02-07T04:08:33.301Z,51.48
2023-02-07T04:10:34.666Z,51.05
2023-02-07T04:12:35.996Z,51.08
2023-02-07T04:14:37.327Z,50.50
2023-02-07T04:16:38.664Z,50.58
2023-02-07T04:18:40.007Z,50.59
2023-02-07T04:20:41.310Z,50.28
2023-02-07T04:22:42.633Z,50.73
2023-02-07T04:24:43.942Z,50.80
2023-02-07T04:26:45.234Z,50.31
2023-02-07T04:28:46.543Z,50.68
2023-02-07T04:30:47.925Z,50.61
2023-02-07T04:32:49.296Z,50.38
2023-02-07T04:34:50.621Z,50.41
2023-02-07T04:36:51.912Z,50.39
2023-02-07T04:38:53.216Z,50.58
2023-02-07T04:40:54.515Z,50.18
2023-02-07T04:42:55.850Z,50.50
2023-02-07T04:44:57.241Z,50.64
2023-02-07T04:46:58.566Z,50.34
2023-02-07T04:48:59.912Z,50.75
2023-02-07T04:51:02.170Z,51.08
2023-02-07T04:53:03.482Z,50.93
2023-02-07T04:55:04.783Z,51.23
2023-02-07T04:57:06.133Z,50.90
2023-02-07T04:59:07.435Z,50.97
2023-02-07T05:01:08.790Z,51.15
2023-02-07T05:03:10.111Z,51.45
2023-02-07T05:05:11.412Z,51.20
2023-02-07T05:07:12.738Z,51.48
2023-02-07T05:09:14.082Z,51.59
2023-02-07T05:11:15.510Z,51.78
2023-02-07T05:13:16.890Z,51.81
2023-02-07T05:15:18.225Z,51.85
2023-02-07T05:17:20.073Z,51.71
2023-02-07T05:19:21.452Z,51.78
2023-02-07T05:21:22.779Z,51.81
2023-02-07T05:23:24.080Z,51.78
2023-02-07T05:25:25.410Z,51.25
2023-02-07T05:27:26.756Z,51.01
2023-02-07T05:29:28.102Z,51.02
2023-02-07T05:31:48.570Z,50.66
2023-02-07T05:33:49.936Z,50.23
2023-02-07T05:35:51.234Z,50.14
2023-02-07T05:37:52.555Z,50.04
2023-02-07T05:39:53.853Z,49.82
2023-02-07T05:41:55.255Z,49.68
2023-02-07T05:43:56.603Z,49.43
2023-02-07T05:45:57.927Z,49.74
2023-02-07T05:47:59.394Z,49.43
2023-02-07T05:50:00.744Z,49.38
2023-02-07T05:52:02.165Z,49.38
2023-02-07T05:54:03.465Z,49.31
2023-02-07T05:56:04.769Z,48.76
2023-02-07T05:58:06.151Z,48.70
2023-02-07T06:00:07.540Z,49.04
2023-02-07T06:02:09.014Z,48.68
2023-02-07T06:04:10.499Z,49.08
2023-02-07T06:06:11.846Z,49.15
2023-02-07T06:08:13.192Z,48.83
2023-02-07T06:10:14.493Z,49.22
2023-02-07T06:12:15.814Z,49.28
2023-02-07T06:14:17.151Z,49.20
2023-02-07T06:16:18.454Z,49.33
2023-02-07T06:18:19.771Z,49.07
2023-02-07T06:20:21.237Z,49.53
2023-02-07T06:22:22.635Z,49.42
2023-02-07T06:24:24.066Z,49.55
2023-02-07T06:26:25.400Z,49.85
2023-02-07T06:28:26.752Z,50.08
2023-02-07T06:30:28.073Z,49.88
2023-02-07T06:32:29.420Z,49.82
2023-02-07T06:34:30.722Z,49.88
2023-02-07T06:36:32.051Z,50.11
2023-02-07T06:38:33.361Z,50.27
2023-02-07T06:40:34.657Z,49.99
2023-02-07T06:42:35.982Z,50.12
2023-02-07T06:44:37.292Z,50.23
2023-02-07T06:46:38.639Z,50.43
2023-02-07T06:48:40.033Z,50.07
2023-02-07T06:50:41.354Z,50.29
2023-02-07T06:52:42.664Z,50.43
2023-02-07T06:54:43.989Z,50.18
2023-02-07T06:56:45.320Z,49.84
2023-02-07T06:58:46.825Z,49.58
2023-02-07T07:00:48.234Z,49.80
2023-02-07T07:02:49.854Z,49.53
2023-02-07T07:04:51.170Z,49.25
2023-02-07T07:06:52.646Z,49.09
2023-02-07T07:08:53.996Z,48.68
2023-02-07T07:10:55.352Z,48.58
2023-02-07T07:12:56.800Z,48.81
2023-02-07T07:14:58.112Z,48.58
2023-02-07T07:16:59.469Z,48.24
2023-02-07T07:19:00.777Z,48.64
2023-02-07T07:21:02.132Z,48.60
2023-02-07T07:23:03.509Z,48.16
2023-02-07T07:25:04.973Z,48.63
2023-02-07T07:27:06.277Z,48.58
2023-02-07T07:29:08.378Z,48.22
2023-02-07T07:31:09.838Z,48.47
2023-02-07T07:33:11.223Z,48.48
2023-02-07T07:35:12.634Z,48.51
2023-02-07T07:37:13.983Z,48.49
2023-02-07T07:39:17.041Z,48.71
2023-02-07T07:41:18.417Z,48.83
2023-02-07T07:43:19.727Z,48.64
2023-02-07T07:45:21.067Z,48.84
2023-02-07T07:47:22.386Z,49.30
2023-02-07T07:49:23.711Z,49.11
2023-02-07T07:51:25.032Z,49.59
2023-02-07T07:53:26.448Z,49.45
2023-02-07T07:55:27.838Z,49.64
2023-02-07T07:57:29.155Z,49.70
2023-02-07T07:59:30.461Z,49.39
2023-02-07T08:01:31.761Z,49.41
2023-02-07T08:03:33.093Z,49.24
2023-02-07T08:05:34.407Z,49.48
2023-02-07T08:07:35.741Z,49.21
2023-02-07T08:09:37.099Z,49.62
2023-02-07T08:11:38.450Z,49.45
2023-02-07T08:13:39.747Z,49.35
2023-02-07T08:15:41.079Z,48.87
2023-02-07T08:17:42.464Z,48.91
2023-02-07T08:19:43.790Z,48.72
2023-02-07T08:21:45.276Z,48.77
2023-02-07T08:23:46.615Z,48.23
2023-02-07T08:25:47.959Z,48.07
2023-02-07T08:27:49.280Z,48.07
2023-02-07T08:29:50.599Z,48.00
2023-02-07T08:31:52.052Z,48.19
2023-02-07T08:33:53.528Z,47.80
2023-02-07T08:35:54.840Z,48.17
2023-02-07T08:37:56.619Z,48.14
2023-02-07T08:39:58.169Z,47.69
2023-02-07T08:41:59.551Z,48.17
2023-02-07T08:44:00.851Z,48.05
2023-02-07T08:46:02.489Z,48.26
2023-02-07T08:48:03.853Z,48.56
2023-02-07T08:50:05.160Z,48.82
2023-02-07T08:52:06.475Z,48.83
2023-02-07T08:54:07.759Z,48.82
2023-02-07T08:56:09.099Z,48.57
2023-02-07T08:58:10.740Z,48.72
2023-02-07T09:00:12.601Z,49.21
2023-02-07T09:02:13.953Z,48.92
2023-02-07T09:04:15.283Z,48.93
2023-02-07T09:06:16.595Z,49.13
2023-02-07T09:08:18.849Z,48.88
2023-02-07T09:10:20.222Z,49.01
2023-02-07T09:12:21.537Z,49.25
2023-02-07T09:14:22.843Z,49.05
2023-02-07T09:16:24.537Z,48.98
2023-02-07T09:18:25.872Z,49.00
2023-02-07T09:20:27.546Z,49.43
2023-02-07T09:22:28.964Z,49.42
2023-02-07T09:24:30.267Z,49.40
2023-02-07T09:26:33.264Z,49.41
2023-02-07T09:28:35.038Z,49.05
2023-02-07T09:30:36.473Z,49.21
2023-02-07T09:32:37.864Z,49.35
2023-02-07T09:34:39.159Z,49.21
2023-02-07T09:36:40.504Z,48.88
2023-02-07T09:38:43.867Z,48.78
2023-02-07T09:40:45.292Z,48.33
2023-02-07T09:42:46.698Z,48.61
2023-02-07T09:44:48.145Z,48.56
2023-02-07T09:46:49.591Z,48.01
2023-02-07T09:48:50.892Z,47.86
2023-02-07T09:50:52.307Z,48.07
2023-02-07T09:52:53.665Z,47.70
2023-02-07T09:54:55.002Z,47.77
2023-02-07T09:56:56.311Z,47.62
2023-02-07T09:58:57.605Z,47.96
2023-02-07T10:00:58.954Z,47.60
2023-02-07T10:03:00.267Z,47.62
2023-02-07T10:05:01.605Z,47.55
2023-02-07T10:07:02.931Z,47.75
2023-02-07T10:09:04.264Z,47.94
2023-02-07T10:11:05.999Z,48.43
2023-02-07T10:13:08.709Z,48.52
2023-02-07T10:15:14.058Z,48.49
2023-02-07T10:17:25.815Z,48.63
2023-02-07T10:19:32.060Z,48.21
2023-02-07T10:21:33.367Z,48.35
2023-02-07T10:23:34.669Z,48.70
2023-02-07T10:25:36.006Z,48.65
2023-02-07T10:27:37.331Z,48.47
2023-02-07T10:29:38.665Z,48.47
2023-02-07T10:31:40.055Z,48.93
2023-02-07T10:33:41.422Z,48.98
2023-02-07T10:35:42.968Z,48.87
2023-02-07T10:37:44.277Z,48.83
2023-02-07T10:39:45.642Z,48.52
2023-02-07T10:41:46.998Z,48.53
2023-02-07T10:43:48.344Z,48.81
2023-02-07T10:45:54.338Z,48.50
2023-02-07T10:48:01.638Z,48.38
2023-02-07T10:50:02.966Z,48.81
2023-02-07T10:52:04.303Z,48.63
2023-02-07T10:54:07.690Z,48.18
2023-02-07T10:56:09.183Z,48.49
2023-02-07T10:58:22.444Z,48.13
2023-02-07T11:00:27.322Z,47.91
2023-02-07T11:02:28.745Z,47.77
2023-02-07T11:04:30.174Z,47.83
2023-02-07T11:06:32.141Z,47.53
2023-02-07T11:08:33.533Z,47.21
2023-02-07T11:10:35.032Z,47.13
2023-02-07T11:12:36.361Z,47.27
2023-02-07T11:14:40.093Z,47.10
2023-02-07T11:16:44.139Z,47.37
2023-02-07T11:18:45.958Z,47.38
2023-02-07T11:20:47.312Z,47.43
2023-02-07T11:22:48.619Z,47.61
2023-02-07T11:24:49.946Z,47.28
2023-02-07T11:26:51.899Z,47.72
2023-02-07T11:28:53.320Z,47.83
2023-02-07T11:30:55.943Z,47.51
2023-02-07T11:32:58.522Z,48.11
2023-02-07T11:35:02.132Z,47.70
2023-02-07T11:37:03.468Z,48.19
2023-02-07T11:39:04.760Z,48.14
2023-02-07T11:41:09.156Z,48.15
2023-02-07T11:43:10.464Z,48.20
2023-02-07T11:45:11.765Z,48.54
2023-02-07T11:47:13.320Z,48.64
2023-02-07T11:49:14.620Z,48.34
2023-02-07T11:51:15.965Z,48.72
2023-02-07T11:53:17.314Z,48.73
2023-02-07T11:55:18.621Z,48.43
2023-02-07T11:57:19.999Z,48.93
2023-02-07T11:59:22.063Z,48.59
2023-02-07T12:01:23.535Z,48.96
2023-02-07T12:03:24.928Z,48.48
2023-02-07T12:05:26.236Z,48.65
2023-02-07T12:07:27.530Z,49.00
2023-02-07T12:09:28.857Z,48.45
2023-02-07T12:11:30.295Z,48.33
2023-02-07T12:13:31.640Z,48.21
2023-02-07T12:15:33.209Z,48.21
2023-02-07T12:17:34.681Z,48.17
2023-02-07T12:19:35.980Z,48.17
2023-02-07T12:21:37.321Z,48.00
2023-02-07T12:23:42.802Z,47.65
2023-02-07T12:25:45.450Z,47.61
2023-02-07T12:27:46.794Z,47.56
2023-02-07T12:29:48.217Z,47.38
2023-02-07T12:31:49.621Z,47.75
2023-02-07T12:33:52.048Z,47.71
2023-02-07T12:35:57.507Z,47.78
2023-02-07T12:37:59.441Z,47.86
2023-02-07T12:40:00.842Z,47.41
2023-02-07T12:42:02.294Z,47.49
2023-02-07T12:44:05.433Z,47.63
2023-02-07T12:46:07.734Z,47.83
2023-02-07T12:48:09.045Z,47.99
2023-02-07T12:50:10.388Z,48.21
2023-02-07T12:52:11.684Z,48.07
2023-02-07T12:54:12.995Z,48.18
2023-02-07T12:56:14.357Z,48.15
2023-02-07T12:58:15.711Z,48.13
2023-02-07T13:00:17.043Z,48.48
2023-02-07T13:02:18.353Z,48.50
2023-02-07T13:04:19.780Z,48.94
2023-02-07T13:06:21.095Z,48.64
2023-02-07T13:08:22.386Z,48.68
2023-02-07T13:10:23.754Z,49.45
2023-02-07T13:12:25.092Z,49.18
2023-02-07T13:14:26.507Z,49.10
2023-02-07T13:16:27.962Z,49.12
2023-02-07T13:18:29.335Z,48.86
2023-02-07T13:20:30.651Z,48.93
2023-02-07T13:22:31.984Z,49.24
2023-02-07T13:24:33.308Z,48.90
2023-02-07T13:26:37.390Z,48.97
2023-02-07T13:28:38.817Z,48.98
2023-02-07T13:30:40.147Z,49.09
2023-02-07T13:32:41.542Z,49.44
2023-02-07T13:34:42.915Z,49.54
2023-02-07T13:36:44.326Z,49.89
2023-02-07T13:38:46.425Z,49.55
2023-02-07T13:40:47.755Z,49.63
2023-02-07T13:42:49.073Z,49.47
2023-02-07T13:44:50.424Z,49.48
2023-02-07T13:46:55.850Z,49.32
2023-02-07T13:48:57.162Z,48.96
2023-02-07T13:50:58.490Z,48.66
2023-02-07T13:52:59.837Z,48.42
2023-02-07T13:55:02.163Z,48.50
2023-02-07T13:57:22.143Z,48.38
2023-02-07T13:59:52.648Z,47.97
2023-02-07T14:01:53.943Z,47.95
2023-02-07T14:03:55.240Z,47.73
2023-02-07T14:05:56.636Z,47.70
2023-02-07T14:07:57.971Z,48.09
2023-02-07T14:09:59.417Z,47.66
2023-02-07T14:12:00.829Z,48.00
2023-02-07T14:14:02.136Z,47.88
2023-02-07T14:16:03.535Z,47.85
2023-02-07T14:18:04.883Z,47.75
2023-02-07T14:20:06.191Z,47.58
2023-02-07T14:22:07.524Z,47.65
2023-02-07T14:24:09.020Z,47.61
2023-02-07T14:26:10.409Z,47.79
2023-02-07T14:28:12.134Z,47.51
2023-02-07T14:30:13.453Z,48.14
2023-02-07T14:32:14.756Z,47.72
2023-02-07T14:34:16.112Z,47.89
2023-02-07T14:36:17.439Z,48.14
2023-02-07T14:38:18.735Z,47.88
2023-02-07T14:40:20.039Z,48.53
2023-02-07T14:42:21.367Z,48.22
2023-02-07T14:44:22.681Z,48.99
2023-02-07T14:46:24.167Z,48.84
2023-02-07T14:48:25.569Z,38.87
2023-02-07T14:50:30.477Z,36.97
2023-02-07T14:52:34.820Z,41.50
2023-02-07T14:54:36.130Z,40.58
2023-02-07T14:56:38.440Z,41.40
2023-02-07T14:58:39.981Z,40.73
2023-02-07T15:00:41.740Z,41.26
2023-02-07T15:02:43.273Z,41.24
2023-02-07T15:04:44.600Z,41.86
2023-02-07T15:06:45.947Z,42.43
2023-02-07T15:08:47.243Z,42.76
2023-02-07T15:10:48.596Z,42.87
2023-02-07T15:12:49.943Z,43.05
2023-02-07T15:14:51.288Z,43.39
2023-02-07T15:16:52.621Z,44.36
2023-02-07T15:18:54.022Z,44.14
2023-02-07T15:20:57.504Z,44.36
2023-02-07T15:22:59.736Z,44.94
2023-02-07T15:25:01.085Z,44.78
2023-02-07T15:27:02.389Z,45.02
2023-02-07T15:29:03.777Z,45.29
2023-02-07T15:31:05.279Z,45.25
2023-02-07T15:33:06.759Z,45.15
2023-02-07T15:35:08.049Z,45.41
2023-02-07T15:37:09.347Z,45.58
2023-02-07T15:39:11.008Z,45.95
2023-02-07T15:41:12.308Z,45.57
2023-02-07T15:43:13.640Z,45.29
2023-02-07T15:45:24.231Z,45.64
2023-02-07T15:47:25.876Z,45.81
2023-02-07T15:49:27.159Z,47.12
2023-02-07T15:51:28.445Z,46.23
2023-02-07T15:53:29.841Z,46.23
2023-02-07T15:55:31.195Z,46.00
2023-02-07T15:57:32.497Z,46.45
2023-02-07T15:59:34.000Z,45.97
2023-02-07T16:01:35.369Z,46.39
2023-02-07T16:03:36.717Z,46.30
2023-02-07T16:05:38.136Z,46.60
2023-02-07T16:07:40.428Z,47.61
2023-02-07T16:09:41.766Z,47.44
2023-02-07T16:11:43.100Z,47.37
2023-02-07T16:13:44.655Z,47.07
2023-02-07T16:15:45.947Z,47.03
2023-02-07T16:17:47.268Z,47.06
2023-02-07T16:19:48.572Z,47.63
2023-02-07T16:21:49.905Z,46.65
2023-02-07T16:23:51.398Z,47.29
2023-02-07T16:25:52.724Z,47.94
2023-02-07T16:27:54.182Z,47.22
2023-02-07T16:29:55.535Z,47.71
2023-02-07T16:31:56.923Z,47.03
2023-02-07T16:33:58.263Z,46.80
2023-02-07T16:35:59.595Z,47.18
2023-02-07T16:38:00.999Z,47.22
2023-02-07T16:40:02.296Z,47.82
2023-02-07T16:42:04.520Z,46.83
2023-02-07T16:44:05.848Z,46.95
2023-02-07T16:46:07.252Z,47.32
2023-02-07T16:48:08.568Z,46.64
2023-02-07T16:50:09.882Z,46.51
2023-02-07T16:52:11.181Z,47.27
2023-02-07T16:54:12.556Z,46.39
2023-02-07T16:56:13.867Z,47.07
2023-02-07T16:58:15.163Z,47.12
2023-02-07T17:00:16.521Z,46.88
2023-02-07T17:02:20.977Z,47.58
2023-02-07T17:04:22.353Z,47.20
2023-02-07T17:06:23.692Z,48.13
2023-02-07T17:08:30.107Z,48.52
2023-02-07T17:10:31.436Z,48.18
2023-02-07T17:12:32.731Z,47.31
2023-02-07T17:14:36.323Z,47.33
2023-02-07T17:16:40.680Z,47.57
2023-02-07T17:18:42.049Z,47.99
2023-02-07T17:20:43.387Z,47.39
2023-02-07T17:22:44.690Z,47.55
2023-02-07T17:24:47.672Z,47.39
2023-02-07T17:26:48.993Z,47.99
2023-02-07T17:28:50.346Z,47.64
2023-02-07T17:30:51.701Z,47.78
2023-02-07T17:32:53.052Z,47.67
2023-02-07T17:34:54.355Z,47.61
2023-02-07T17:36:55.655Z,48.08
2023-02-07T17:39:02.837Z,47.91
2023-02-07T17:41:04.161Z,48.65
2023-02-07T17:43:05.568Z,48.35
2023-02-07T17:45:06.995Z,48.18
2023-02-07T17:47:08.332Z,47.93
2023-02-07T17:49:09.618Z,48.13
2023-02-07T17:51:11.008Z,48.16
2023-02-07T17:53:15.740Z,49.07
2023-02-07T17:55:17.155Z,48.11
2023-02-07T17:57:18.456Z,48.16
2023-02-07T17:59:19.796Z,47.98
2023-02-07T18:01:21.200Z,48.53
2023-02-07T18:03:22.608Z,47.50
2023-02-07T18:05:23.993Z,47.89
2023-02-07T18:07:26.838Z,47.82
2023-02-07T18:09:31.118Z,48.18
2023-02-07T18:11:34.600Z,47.50
2023-02-07T18:13:35.955Z,47.37
2023-02-07T18:15:37.315Z,47.14
2023-02-07T18:17:38.678Z,47.08
2023-02-07T18:19:39.976Z,47.57
2023-02-07T18:21:41.318Z,47.11
2023-02-07T18:23:43.079Z,47.20
2023-02-07T18:25:47.508Z,47.30
2023-02-07T18:27:51.098Z,46.96
2023-02-07T18:29:58.460Z,47.49
2023-02-07T18:31:59.753Z,47.59
2023-02-07T18:34:01.056Z,47.59
2023-02-07T18:36:08.749Z,47.71
2023-02-07T18:38:10.140Z,47.56
2023-02-07T18:40:12.926Z,48.26
2023-02-07T18:42:17.453Z,47.92
2023-02-07T18:44:20.019Z,47.84
2023-02-07T18:46:24.464Z,48.21
2023-02-07T18:48:26.763Z,48.17
2023-02-07T18:50:28.056Z,48.63
2023-02-07T18:52:29.780Z,48.11
2023-02-07T18:54:34.003Z,48.27
2023-02-07T18:56:35.810Z,48.29
2023-02-07T18:58:37.744Z,48.27
2023-02-07T19:00:39.223Z,48.39
2023-02-07T19:02:40.739Z,48.26
2023-02-07T19:04:42.174Z,48.22
2023-02-07T19:06:43.571Z,48.43
2023-02-07T19:08:44.862Z,48.04
2023-02-07T19:10:46.159Z,48.08
2023-02-07T19:12:47.461Z,48.47
2023-02-07T19:14:54.732Z,47.47
2023-02-07T19:16:56.319Z,47.21
2023-02-07T19:18:57.637Z,47.10
2023-02-07T19:20:58.944Z,47.27
2023-02-07T19:23:00.254Z,47.23
2023-02-07T19:25:01.808Z,47.34
2023-02-07T19:27:05.755Z,47.26
2023-02-07T19:29:12.822Z,47.55
2023-02-07T19:31:17.897Z,47.31
2023-02-07T19:33:19.354Z,46.16
2023-02-07T19:35:20.719Z,46.97
2023-02-07T19:37:22.494Z,47.13
2023-02-07T19:39:23.796Z,48.67
2023-02-07T19:41:25.092Z,47.30
2023-02-07T19:43:26.393Z,47.88
2023-02-07T19:45:27.686Z,47.52
2023-02-07T19:47:29.063Z,47.39
2023-02-07T19:49:33.267Z,47.88
2023-02-07T19:51:34.608Z,47.65
2023-02-07T19:53:38.840Z,47.40
2023-02-07T19:55:42.799Z,47.68
2023-02-07T19:57:44.149Z,47.76
2023-02-07T19:59:48.306Z,47.16
2023-02-07T20:01:49.670Z,47.67
2023-02-07T20:03:51.253Z,47.85
2023-02-07T20:05:55.647Z,47.66
2023-02-07T20:07:56.967Z,48.15
2023-02-07T20:09:58.305Z,48.16
2023-02-07T20:11:59.827Z,47.82
2023-02-07T20:16:05.108Z,47.91
2023-02-07T20:18:15.395Z,48.40
2023-02-07T20:20:17.885Z,48.26
2023-02-07T20:22:19.234Z,48.07
2023-02-07T20:24:20.568Z,47.60
2023-02-07T20:26:21.857Z,48.17
2023-02-07T20:28:24.570Z,47.93
2023-02-07T20:30:28.686Z,47.84
2023-02-07T20:32:29.986Z,47.51
2023-02-07T20:34:31.293Z,47.81
2023-02-07T20:36:33.703Z,48.28
2023-02-07T20:38:35.119Z,48.40
2023-02-07T20:40:36.459Z,48.09
2023-02-07T20:42:37.747Z,47.74
2023-02-07T20:44:39.051Z,47.41
2023-02-07T20:46:40.986Z,47.66
2023-02-07T20:48:42.708Z,47.27
2023-02-07T20:50:44.006Z,47.36
2023-02-07T20:52:45.325Z,47.36
2023-02-07T20:54:47.705Z,47.01
2023-02-07T20:56:54.941Z,46.83
2023-02-07T20:58:57.955Z,47.40
2023-02-07T21:00:59.359Z,47.42
2023-02-07T21:03:00.688Z,47.71
2023-02-07T21:05:04.885Z,47.05
2023-02-07T21:09:07.623Z,47.69
2023-02-07T21:11:09.022Z,47.11
2023-02-07T21:13:10.327Z,47.27
2023-02-07T21:17:12.965Z,47.77
2023-02-07T21:19:14.850Z,48.08
2023-02-07T21:21:16.189Z,47.97
2023-02-07T21:23:17.509Z,48.28
2023-02-07T21:25:18.804Z,47.90
2023-02-07T21:27:20.135Z,48.53
2023-02-07T21:29:21.458Z,48.32
2023-02-07T21:31:22.873Z,48.05
2023-02-07T21:33:24.236Z,48.27
2023-02-07T21:35:25.582Z,48.89
2023-02-07T21:37:26.872Z,49.03
2023-02-07T21:39:28.166Z,49.11
2023-02-07T21:41:29.622Z,48.85
2023-02-07T21:43:30.935Z,35.33
2023-02-07T21:45:32.283Z,34.07
2023-02-07T21:47:33.681Z,41.76
2023-02-07T21:49:34.987Z,39.20
2023-02-07T21:51:36.332Z,39.27
2023-02-07T21:53:37.727Z,39.28
2023-02-07T21:55:44.955Z,40.05
2023-02-07T21:57:46.248Z,40.83
2023-02-07T21:59:47.639Z,41.41
2023-02-07T22:01:49.038Z,41.91
2023-02-07T22:03:50.410Z,42.27
2023-02-07T22:05:52.497Z,42.18
2023-02-07T22:07:53.838Z,42.88
2023-02-07T22:09:55.153Z,42.89
2023-02-07T22:11:56.497Z,43.46
2023-02-07T22:13:57.800Z,43.32
2023-02-07T22:15:59.167Z,43.38
2023-02-07T22:18:00.472Z,43.98
2023-02-07T22:20:01.824Z,44.25
2023-02-07T22:22:03.118Z,44.59
2023-02-07T22:24:04.416Z,44.51
2023-02-07T22:26:05.760Z,44.75
2023-02-07T22:28:07.059Z,44.73
2023-02-07T22:30:08.390Z,45.25
2023-02-07T22:32:09.754Z,45.11
2023-02-07T22:34:11.087Z,45.44
2023-02-07T22:36:12.518Z,45.79
2023-02-07T22:38:13.849Z,46.22
2023-02-07T22:40:15.136Z,46.35
2023-02-07T22:42:16.467Z,46.48
2023-02-07T22:44:17.984Z,46.13
2023-02-07T22:46:19.330Z,46.43
2023-02-07T22:48:20.673Z,46.72
2023-02-07T22:50:21.964Z,46.59
2023-02-07T22:52:23.285Z,47.86
2023-02-07T22:54:24.619Z,47.38
2023-02-07T22:56:25.942Z,48.29
2023-02-07T22:58:27.272Z,48.11
2023-02-07T23:00:28.623Z,48.28
2023-02-07T23:02:29.983Z,48.80
2023-02-07T23:04:31.347Z,48.74
2023-02-07T23:06:32.739Z,49.00
2023-02-07T23:08:34.050Z,49.17
2023-02-07T23:10:35.352Z,49.17
2023-02-07T23:12:36.806Z,49.02
2023-02-07T23:14:38.988Z,48.98
2023-02-07T23:16:40.574Z,49.46
2023-02-07T23:18:41.899Z,49.70
2023-02-07T23:20:43.403Z,49.47
2023-02-07T23:22:44.703Z,49.43
2023-02-07T23:24:46.118Z,49.86
2023-02-07T23:26:47.407Z,49.62
2023-02-07T23:28:49.139Z,50.10
2023-02-07T23:30:50.477Z,49.92
2023-02-07T23:32:51.824Z,49.85
2023-02-07T23:34:53.123Z,49.87
2023-02-07T23:36:54.460Z,49.81
2023-02-07T23:38:55.759Z,49.69
2023-02-07T23:40:57.619Z,49.50
2023-02-07T23:43:01.847Z,49.00
2023-02-07T23:45:03.146Z,48.92
2023-02-07T23:47:04.484Z,48.93
2023-02-07T23:49:05.778Z,48.28
2023-02-07T23:51:07.092Z,48.78
2023-02-07T23:53:08.406Z,48.62
2023-02-07T23:55:09.755Z,48.89
2023-02-07T23:57:11.083Z,48.84
2023-02-07T23:59:12.385Z,49.08
